createdAt,value
2023-05-17T00:00:04.584Z,946.92
2023-05-17T00:05:03.662Z,946.92
2023-05-17T00:10:04.489Z,946.88
2023-05-17T00:15:03.426Z,946.78
2023-05-17T00:20:04.534Z,946.73
2023-05-17T00:25:03.769Z,946.65
2023-05-17T00:30:04.907Z,946.67
2023-05-17T00:35:03.355Z,946.67
2023-05-17T00:40:04.690Z,946.59
2023-05-17T00:45:03.928Z,946.57
2023-05-17T00:50:04.803Z,946.53
2023-05-17T00:55:03.500Z,946.53
2023-05-17T01:00:04.708Z,946.53
2023-05-17T01:05:03.840Z,946.55
2023-05-17T01:10:04.783Z,946.59
2023-05-17T01:15:03.321Z,946.65
2023-05-17T01:20:04.541Z,946.67
2023-05-17T01:25:04.134Z,946.67
2023-05-17T01:30:04.966Z,946.65
2023-05-17T01:35:03.563Z,946.63
2023-05-17T01:40:04.708Z,946.65
2023-05-17T01:45:03.695Z,946.63
2023-05-17T01:50:04.653Z,946.53
2023-05-17T01:55:03.244Z,946.31
2023-05-17T02:00:04.303Z,946.18
2023-05-17T02:05:03.234Z,946.20
2023-05-17T02:10:04.223Z,946.22
2023-05-17T02:15:04.203Z,946.18
2023-05-17T02:20:04.288Z,946.06
2023-05-17T02:25:03.160Z,945.88
2023-05-17T02:30:04.249Z,945.78
2023-05-17T02:35:03.165Z,945.76
2023-05-17T02:40:04.144Z,945.70
2023-05-17T02:45:03.291Z,945.67
2023-05-17T02:50:04.253Z,945.69
2023-05-17T02:55:03.204Z,945.72
2023-05-17T03:00:04.153Z,945.70
2023-05-17T03:05:03.136Z,945.70
2023-05-17T03:10:04.087Z,945.70
2023-05-17T03:15:03.252Z,945.67
2023-05-17T03:20:05.122Z,945.70
2023-05-17T03:25:03.092Z,945.72
2023-05-17T03:30:04.160Z,945.70
2023-05-17T03:35:03.191Z,945.74
2023-05-17T03:40:04.203Z,945.69
2023-05-17T03:45:03.199Z,945.57
2023-05-17T03:50:04.192Z,945.53
2023-05-17T03:55:03.148Z,945.55
2023-05-17T04:00:04.120Z,945.67
2023-05-17T04:05:03.136Z,945.78
2023-05-17T04:10:04.910Z,945.80
2023-05-17T04:15:04.298Z,945.72
2023-05-17T04:20:04.217Z,945.57
2023-05-17T04:25:04.160Z,945.51
2023-05-17T04:30:04.184Z,945.45
2023-05-17T04:35:03.220Z,945.45
2023-05-17T04:40:04.125Z,945.37
2023-05-17T04:45:03.151Z,945.31
2023-05-17T04:50:04.312Z,945.25
2023-05-17T04:55:03.228Z,945.18
2023-05-17T05:00:04.145Z,945.08
2023-05-17T05:05:03.284Z,945.04
2023-05-17T05:10:04.141Z,944.94
2023-05-17T05:15:03.171Z,944.90
2023-05-17T05:20:04.165Z,944.80
2023-05-17T05:25:03.089Z,944.70
2023-05-17T05:30:04.140Z,944.68
2023-05-17T05:35:03.121Z,944.65
2023-05-17T05:40:04.121Z,944.65
2023-05-17T05:45:03.157Z,944.65
2023-05-17T05:50:04.172Z,944.59
2023-05-17T05:55:03.178Z,944.53
2023-05-17T06:00:04.151Z,944.47
2023-05-17T06:05:03.178Z,944.43
2023-05-17T06:10:04.174Z,944.35
2023-05-17T06:15:05.580Z,944.29
2023-05-17T06:20:07.081Z,944.27
2023-05-17T06:25:03.568Z,944.23
2023-05-17T06:30:06.445Z,944.23
2023-05-17T06:35:03.183Z,944.27
2023-05-17T06:40:10.450Z,944.29
2023-05-17T06:45:03.190Z,944.29
2023-05-17T06:50:05.403Z,944.29
2023-05-17T06:55:03.326Z,944.33
2023-05-17T07:00:04.151Z,944.35
2023-05-17T07:05:03.400Z,944.39
2023-05-17T07:10:04.263Z,944.39
2023-05-17T07:15:03.226Z,944.39
2023-05-17T07:20:04.330Z,944.41
2023-05-17T07:25:03.254Z,944.43
2023-05-17T07:30:04.377Z,944.39
2023-05-17T07:35:03.456Z,944.37
2023-05-17T07:40:04.240Z,944.37
2023-05-17T07:45:03.240Z,944.39
2023-05-17T07:50:04.377Z,944.39
2023-05-17T07:55:06.038Z,944.35
2023-05-17T08:00:04.415Z,944.29
2023-05-17T08:05:03.346Z,944.29
2023-05-17T08:10:04.272Z,944.27
2023-05-17T08:15:03.267Z,944.27
2023-05-17T08:20:04.383Z,944.33
2023-05-17T08:25:03.274Z,944.39
2023-05-17T08:30:07.097Z,944.41
2023-05-17T08:35:03.344Z,944.43
2023-05-17T08:40:04.281Z,944.51
2023-05-17T08:45:03.236Z,944.55
2023-05-17T08:50:04.357Z,944.61
2023-05-17T08:55:03.410Z,944.61
2023-05-17T09:00:05.397Z,944.61
2023-05-17T09:05:03.429Z,944.65
2023-05-17T09:10:04.236Z,944.68
2023-05-17T09:15:03.173Z,944.72
2023-05-17T09:20:04.334Z,944.74
2023-05-17T09:25:03.397Z,944.78
2023-05-17T09:30:04.357Z,944.82
2023-05-17T09:35:03.378Z,944.86
2023-05-17T09:40:04.290Z,944.90
2023-05-17T09:45:03.405Z,944.92
2023-05-17T09:50:04.194Z,944.98
2023-05-17T09:55:03.238Z,945.04
2023-05-17T10:00:04.329Z,945.10
2023-05-17T10:05:03.425Z,945.12
2023-05-17T10:10:04.187Z,945.16
2023-05-17T10:15:03.433Z,945.20
2023-05-17T10:20:04.437Z,945.23
2023-05-17T10:25:03.273Z,945.27
2023-05-17T10:30:04.460Z,945.29
2023-05-17T10:35:11.000Z,945.31
2023-05-17T10:40:04.262Z,945.29
2023-05-17T10:45:03.361Z,945.29
2023-05-17T10:50:04.268Z,945.29
2023-05-17T10:55:03.268Z,945.35
2023-05-17T11:00:04.436Z,945.39
2023-05-17T11:05:03.382Z,945.41
2023-05-17T11:10:04.246Z,945.47
2023-05-17T11:15:03.378Z,945.59
2023-05-17T11:20:04.444Z,945.65
2023-05-17T11:25:03.262Z,945.65
2023-05-17T11:30:04.578Z,945.69
2023-05-17T11:35:03.462Z,945.70
2023-05-17T11:40:04.145Z,945.78
2023-05-17T11:45:03.166Z,945.86
2023-05-17T11:50:04.293Z,945.92
2023-05-17T11:55:03.289Z,945.94
2023-05-17T12:00:04.359Z,945.96
2023-05-17T12:05:03.451Z,946.00
2023-05-17T12:10:04.371Z,946.18
2023-05-17T12:15:03.186Z,946.22
2023-05-17T12:20:04.320Z,946.22
2023-05-17T12:25:03.212Z,946.20
2023-05-17T12:30:04.324Z,946.20
2023-05-17T12:35:03.278Z,946.18
2023-05-17T12:40:04.206Z,946.18
2023-05-17T12:45:03.409Z,946.23
2023-05-17T12:50:04.264Z,946.33
2023-05-17T12:55:03.252Z,946.33
2023-05-17T13:00:04.555Z,946.31
2023-05-17T13:05:03.432Z,946.39
2023-05-17T13:10:04.399Z,946.43
2023-05-17T13:15:03.204Z,946.41
2023-05-17T13:20:05.936Z,946.41
2023-05-17T13:25:03.228Z,946.47
2023-05-17T13:30:04.393Z,946.49
2023-05-17T13:35:03.338Z,946.51
2023-05-17T13:40:04.469Z,946.53
2023-05-17T13:45:03.511Z,946.55
2023-05-17T13:50:04.281Z,946.61
2023-05-17T13:55:03.262Z,946.65
2023-05-17T14:00:04.372Z,946.61
2023-05-17T14:05:03.318Z,946.53
2023-05-17T14:10:04.430Z,946.47
2023-05-17T14:15:03.401Z,946.37
2023-05-17T14:20:04.311Z,946.33
2023-05-17T14:25:03.239Z,946.27
2023-05-17T14:30:04.297Z,946.23
2023-05-17T14:35:03.355Z,946.22
2023-05-17T14:40:06.671Z,946.18
2023-05-17T14:45:03.402Z,946.08
2023-05-17T14:50:04.308Z,946.08
2023-05-17T14:55:03.449Z,946.04
2023-05-17T15:00:04.298Z,945.96
2023-05-17T15:05:03.329Z,945.86
2023-05-17T15:10:04.589Z,945.78
2023-05-17T15:15:03.501Z,945.70
2023-05-17T15:20:04.515Z,945.63
2023-05-17T15:25:03.385Z,945.57
2023-05-17T15:30:04.407Z,945.49
2023-05-17T15:35:03.292Z,945.47
2023-05-17T15:40:04.377Z,945.41
2023-05-17T15:45:03.385Z,945.37
2023-05-17T15:50:04.434Z,945.37
2023-05-17T15:55:03.494Z,945.31
2023-05-17T16:00:06.588Z,945.23
2023-05-17T16:05:03.957Z,945.22
2023-05-17T16:10:04.456Z,945.16
2023-05-17T16:15:03.375Z,945.16
2023-05-17T16:20:04.338Z,945.10
2023-05-17T16:25:03.155Z,945.06
2023-05-17T16:30:04.556Z,944.98
2023-05-17T16:35:03.383Z,944.92
2023-05-17T16:40:04.483Z,944.76
2023-05-17T16:45:04.052Z,944.70
2023-05-17T16:50:04.486Z,944.63
2023-05-17T16:55:03.560Z,944.55
2023-05-17T17:00:04.280Z,944.43
2023-05-17T17:05:03.219Z,944.31
2023-05-17T17:10:06.406Z,944.19
2023-05-17T17:15:03.739Z,944.19
2023-05-17T17:20:04.476Z,944.13
2023-05-17T17:25:03.373Z,944.12
2023-05-17T17:30:04.285Z,944.06
2023-05-17T17:35:03.246Z,943.96
2023-05-17T17:40:04.329Z,943.86
2023-05-17T17:45:04.367Z,943.78
2023-05-17T17:50:04.453Z,943.74
2023-05-17T17:55:03.295Z,943.76
2023-05-17T18:00:04.274Z,943.76
2023-05-17T18:05:03.342Z,943.68
2023-05-17T18:10:04.332Z,943.59
2023-05-17T18:15:04.362Z,943.47
2023-05-17T18:20:04.240Z,943.43
2023-05-17T18:25:03.194Z,943.33
2023-05-17T18:30:04.500Z,943.33
2023-05-17T18:35:03.281Z,943.43
2023-05-17T18:40:04.325Z,943.68
2023-05-17T18:45:03.437Z,943.66
2023-05-17T18:50:04.449Z,943.59
2023-05-17T18:55:03.401Z,943.47
2023-05-17T19:00:04.458Z,943.47
2023-05-17T19:05:03.257Z,943.35
2023-05-17T19:10:04.355Z,943.27
2023-05-17T19:15:03.338Z,943.31
2023-05-17T19:20:04.395Z,943.37
2023-05-17T19:25:03.395Z,943.59
2023-05-17T19:30:04.488Z,943.70
2023-05-17T19:35:03.257Z,943.74
2023-05-17T19:40:04.356Z,943.72
2023-05-17T19:45:03.266Z,943.61
2023-05-17T19:50:04.403Z,943.49
2023-05-17T19:55:04.204Z,943.47
2023-05-17T20:00:05.013Z,943.41
2023-05-17T20:05:03.210Z,943.37
2023-05-17T20:10:04.331Z,943.47
2023-05-17T20:15:03.272Z,943.65
2023-05-17T20:20:04.492Z,943.70
2023-05-17T20:25:03.469Z,943.74
2023-05-17T20:30:04.476Z,943.72
2023-05-17T20:35:03.460Z,943.80
2023-05-17T20:40:04.391Z,943.84
2023-05-17T20:45:03.357Z,943.86
2023-05-17T20:50:04.379Z,943.94
2023-05-17T20:55:03.120Z,944.08
2023-05-17T21:00:04.501Z,944.19
2023-05-17T21:05:03.515Z,944.29
2023-05-17T21:10:04.347Z,944.31
2023-05-17T21:15:15.631Z,944.37
2023-05-17T21:20:04.442Z,944.47
2023-05-17T21:25:03.365Z,944.55
2023-05-17T21:30:04.507Z,944.57
2023-05-17T21:35:03.222Z,944.57
2023-05-17T21:40:04.366Z,944.53
2023-05-17T21:45:03.359Z,944.59
2023-05-17T21:50:04.535Z,944.63
2023-05-17T21:55:04.981Z,944.63
2023-05-17T22:00:05.584Z,944.68
2023-05-17T22:05:03.273Z,944.72
2023-05-17T22:10:04.576Z,944.72
2023-05-17T22:15:03.396Z,944.82
2023-05-17T22:20:04.444Z,944.98
2023-05-17T22:25:03.490Z,945.02
2023-05-17T22:30:04.412Z,945.12
2023-05-17T22:35:03.315Z,945.22
2023-05-17T22:40:04.400Z,945.29
2023-05-17T22:45:03.821Z,945.25
2023-05-17T22:50:04.746Z,945.23
2023-05-17T22:55:03.399Z,945.18
2023-05-17T23:00:04.762Z,945.22
2023-05-17T23:05:03.521Z,945.22
2023-05-17T23:10:05.290Z,945.20
2023-05-17T23:15:03.722Z,945.16
2023-05-17T23:20:04.568Z,945.14
2023-05-17T23:25:03.918Z,945.14
2023-05-17T23:30:04.991Z,945.12
2023-05-17T23:35:03.677Z,945.14
2023-05-17T23:40:04.702Z,945.25
2023-05-17T23:45:03.582Z,945.31
2023-05-17T23:50:04.642Z,945.37
2023-05-17T23:55:03.880Z,945.37
